createdAt,value
2018-06-08T00:00:31.996Z,20.00
2018-06-08T00:03:00.217Z,20.00
2018-06-08T00:05:28.557Z,20.00
2018-06-08T00:07:56.780Z,20.00
2018-06-08T00:10:25.035Z,19.90
2018-06-08T00:12:53.262Z,19.90
2018-06-08T00:15:22.330Z,19.80
2018-06-08T00:17:50.523Z,19.70
2018-06-08T00:20:18.740Z,19.70
2018-06-08T00:22:46.952Z,19.70
2018-06-08T00:25:15.430Z,19.70
2018-06-08T00:27:43.656Z,19.70
2018-06-08T00:30:11.906Z,19.70
2018-06-08T00:32:40.264Z,19.70
2018-06-08T00:35:08.682Z,19.70
2018-06-08T00:37:36.961Z,19.70
2018-06-08T00:40:05.319Z,19.70
2018-06-08T00:42:33.523Z,19.60
2018-06-08T00:45:01.773Z,19.60
2018-06-08T00:47:30.638Z,19.60
2018-06-08T00:49:58.910Z,19.60
2018-06-08T00:52:27.120Z,19.50
2018-06-08T00:54:55.339Z,19.50
2018-06-08T00:57:23.694Z,19.50
2018-06-08T00:59:51.925Z,19.50
2018-06-08T01:02:20.114Z,19.50
2018-06-08T01:04:48.300Z,19.50
2018-06-08T01:07:16.586Z,19.50
2018-06-08T01:09:44.875Z,19.40
2018-06-08T01:12:13.298Z,19.40
2018-06-08T01:14:41.517Z,19.40
2018-06-08T01:17:10.020Z,19.40
2018-06-08T01:19:38.292Z,19.40
2018-06-08T01:22:06.532Z,19.40
2018-06-08T01:24:34.760Z,19.40
2018-06-08T01:27:03.061Z,19.40
2018-06-08T01:29:31.251Z,19.40
2018-06-08T01:34:27.486Z,19.40
2018-06-08T01:36:55.722Z,19.40
2018-06-08T01:39:24.862Z,19.30
2018-06-08T01:41:53.057Z,19.30
2018-06-08T01:46:49.270Z,19.20
2018-06-08T01:49:17.461Z,19.20
2018-06-08T01:54:13.686Z,19.20
2018-06-08T01:56:41.938Z,19.20
2018-06-08T01:59:10.179Z,19.20
2018-06-08T02:01:38.372Z,19.20
2018-06-08T02:04:06.585Z,19.20
2018-06-08T02:06:34.838Z,19.20
2018-06-08T02:09:03.101Z,19.20
2018-06-08T02:11:31.387Z,19.20
2018-06-08T02:13:59.627Z,19.20
2018-06-08T02:16:27.981Z,19.10
2018-06-08T02:18:56.177Z,19.10
2018-06-08T02:21:24.400Z,19.10
2018-06-08T02:23:52.616Z,19.10
2018-06-08T02:26:21.066Z,19.10
2018-06-08T02:28:49.322Z,19.10
2018-06-08T02:31:17.654Z,19.10
2018-06-08T02:33:45.845Z,19.20
2018-06-08T02:36:14.083Z,19.20
2018-06-08T02:41:10.378Z,19.30
2018-06-08T02:43:38.612Z,19.20
2018-06-08T02:46:07.318Z,19.30
2018-06-08T02:48:35.547Z,19.30
2018-06-08T02:51:03.774Z,19.30
2018-06-08T02:53:32.025Z,19.30
2018-06-08T02:56:01.378Z,19.30
2018-06-08T02:58:29.718Z,19.10
2018-06-08T03:00:57.907Z,19.10
2018-06-08T03:03:26.180Z,19.00
2018-06-08T03:05:54.392Z,18.90
2018-06-08T03:10:50.838Z,18.90
2018-06-08T03:13:19.104Z,18.90
2018-06-08T03:15:47.395Z,18.90
2018-06-08T03:18:15.633Z,18.90
2018-06-08T03:20:44.966Z,18.90
2018-06-08T03:23:13.157Z,18.90
2018-06-08T03:25:41.498Z,18.90
2018-06-08T03:28:09.840Z,18.90
2018-06-08T03:30:38.075Z,18.90
2018-06-08T03:33:06.252Z,18.90
2018-06-08T03:35:34.584Z,19.00
2018-06-08T03:38:02.827Z,19.00
2018-06-08T03:40:31.087Z,19.00
2018-06-08T03:42:59.357Z,19.00
2018-06-08T03:45:27.670Z,19.00
2018-06-08T03:47:55.871Z,19.00
2018-06-08T03:50:24.103Z,19.00
2018-06-08T03:52:52.445Z,19.00
2018-06-08T03:55:20.774Z,18.90
2018-06-08T03:57:49.005Z,19.00
2018-06-08T04:02:45.263Z,19.00
2018-06-08T04:05:13.743Z,19.10
2018-06-08T04:07:41.922Z,19.20
2018-06-08T04:10:10.089Z,19.20
2018-06-08T04:12:38.372Z,19.10
2018-06-08T04:15:06.564Z,19.20
2018-06-08T04:17:34.773Z,19.20
2018-06-08T04:20:03.105Z,19.20
2018-06-08T04:22:32.712Z,19.20
2018-06-08T04:25:01.146Z,19.20
2018-06-08T04:27:30.167Z,19.20
2018-06-08T04:29:58.334Z,19.20
2018-06-08T04:32:26.630Z,19.20
2018-06-08T04:34:54.809Z,19.20
2018-06-08T04:37:23.047Z,19.20
2018-06-08T04:39:51.280Z,19.20
2018-06-08T04:42:19.527Z,19.20
2018-06-08T04:44:47.675Z,19.20
2018-06-08T04:47:15.881Z,19.20
2018-06-08T04:49:44.132Z,19.30
2018-06-08T04:52:12.369Z,19.30
2018-06-08T04:54:40.611Z,19.30
2018-06-08T04:57:09.965Z,19.30
2018-06-08T04:59:38.205Z,19.30
2018-06-08T05:02:06.448Z,19.30
2018-06-08T05:04:34.698Z,19.30
2018-06-08T05:07:03.020Z,19.40
2018-06-08T05:09:31.286Z,19.30
2018-06-08T05:11:59.490Z,19.40
2018-06-08T05:14:27.653Z,19.40
2018-06-08T05:16:55.933Z,19.30
2018-06-08T05:19:24.201Z,19.30
2018-06-08T05:21:52.489Z,19.30
2018-06-08T05:24:21.066Z,19.30
2018-06-08T05:26:49.436Z,19.30
2018-06-08T05:29:17.664Z,19.30
2018-06-08T05:31:45.986Z,19.30
2018-06-08T05:34:14.190Z,19.30
2018-06-08T05:41:38.519Z,19.20
2018-06-08T05:44:06.779Z,19.30
2018-06-08T05:46:34.992Z,19.20
2018-06-08T05:49:03.234Z,19.20
2018-06-08T05:53:59.469Z,19.20
2018-06-08T05:56:27.942Z,19.20
2018-06-08T05:58:56.256Z,19.10
2018-06-08T06:01:24.604Z,19.10
2018-06-08T06:03:52.795Z,19.00
2018-06-08T06:06:21.181Z,19.00
2018-06-08T06:08:49.395Z,19.00
2018-06-08T06:11:17.633Z,19.00
2018-06-08T06:13:45.858Z,19.00
2018-06-08T06:16:14.083Z,19.00
2018-06-08T06:18:42.248Z,19.00
2018-06-08T06:21:10.521Z,19.00
2018-06-08T06:23:38.770Z,19.00
2018-06-08T06:26:07.000Z,19.00
2018-06-08T06:28:35.194Z,19.00
2018-06-08T06:31:03.381Z,19.00
2018-06-08T06:33:31.633Z,19.00
2018-06-08T06:35:59.910Z,19.00
2018-06-08T06:38:28.114Z,19.00
2018-06-08T06:40:56.306Z,19.00
2018-06-08T06:43:24.541Z,19.00
2018-06-08T06:45:52.756Z,19.00
2018-06-08T06:48:21.988Z,19.00
2018-06-08T06:53:51.693Z,19.00
2018-06-08T06:56:20.070Z,19.00
2018-06-08T06:58:48.316Z,19.00
2018-06-08T07:01:16.623Z,19.00
2018-06-08T07:03:44.786Z,18.90
2018-06-08T07:06:13.172Z,18.90
2018-06-08T07:08:41.434Z,18.90
2018-06-08T07:11:09.608Z,18.90
2018-06-08T07:13:38.428Z,18.80
2018-06-08T07:16:06.680Z,18.80
2018-06-08T07:18:34.867Z,18.80
2018-06-08T07:21:03.089Z,18.80
2018-06-08T07:23:31.969Z,18.80
2018-06-08T07:26:00.249Z,18.80
2018-06-08T07:28:28.461Z,18.90
2018-06-08T07:30:56.694Z,18.90
2018-06-08T07:33:24.915Z,18.90
2018-06-08T07:35:53.303Z,18.90
2018-06-08T07:38:21.618Z,18.80
2018-06-08T07:40:49.810Z,18.80
2018-06-08T07:43:17.996Z,18.80
2018-06-08T07:45:46.212Z,18.80
2018-06-08T07:48:14.476Z,18.80
2018-06-08T07:50:42.705Z,18.80
2018-06-08T07:53:10.916Z,18.80
2018-06-08T07:55:39.273Z,18.90
2018-06-08T07:58:07.566Z,18.80
2018-06-08T08:00:35.817Z,18.90
2018-06-08T08:03:04.038Z,18.90
2018-06-08T08:05:32.436Z,18.90
2018-06-08T08:08:00.670Z,18.90
2018-06-08T08:10:28.884Z,18.90
2018-06-08T08:12:57.087Z,18.90
2018-06-08T08:15:25.352Z,18.90
2018-06-08T08:17:53.538Z,18.90
2018-06-08T08:20:22.380Z,18.90
2018-06-08T08:22:50.653Z,18.90
2018-06-08T08:25:18.993Z,18.90
2018-06-08T08:27:47.153Z,18.90
2018-06-08T08:30:15.331Z,18.80
2018-06-08T08:32:43.505Z,18.90
2018-06-08T08:35:11.676Z,18.90
2018-06-08T08:37:39.846Z,18.90
2018-06-08T08:40:08.037Z,18.90
2018-06-08T08:42:36.198Z,18.90
2018-06-08T08:45:04.628Z,18.90
2018-06-08T08:47:32.844Z,18.80
2018-06-08T08:50:01.125Z,18.80
2018-06-08T08:52:29.374Z,18.80
2018-06-08T08:54:57.576Z,18.80
2018-06-08T08:57:25.740Z,18.70
2018-06-08T09:00:00.379Z,18.70
2018-06-08T09:02:28.577Z,18.60
2018-06-08T09:04:56.775Z,18.60
2018-06-08T09:07:24.946Z,18.50
2018-06-08T09:09:53.120Z,18.40
2018-06-08T09:12:21.384Z,18.40
2018-06-08T09:14:49.629Z,18.40
2018-06-08T09:17:17.852Z,18.40
2018-06-08T09:19:46.047Z,18.40
2018-06-08T09:22:14.225Z,18.50
2018-06-08T09:24:42.407Z,18.50
2018-06-08T09:27:10.816Z,18.50
2018-06-08T09:29:39.006Z,18.60
2018-06-08T09:32:07.184Z,18.60
2018-06-08T09:34:35.364Z,18.70
2018-06-08T09:37:05.816Z,18.70
2018-06-08T09:39:33.954Z,18.70
2018-06-08T09:42:02.200Z,18.80
2018-06-08T09:44:30.393Z,18.80
2018-06-08T09:46:58.638Z,18.80
2018-06-08T09:49:26.787Z,18.90
2018-06-08T09:51:54.956Z,18.90
2018-06-08T09:54:23.171Z,18.90
2018-06-08T09:56:53.381Z,18.90
2018-06-08T09:59:21.723Z,18.90
2018-06-08T10:01:49.961Z,18.90
2018-06-08T10:04:18.150Z,18.90
2018-06-08T10:06:46.541Z,18.90
2018-06-08T10:09:14.728Z,18.90
2018-06-08T10:14:10.847Z,18.90
2018-06-08T10:16:39.135Z,18.90
2018-06-08T10:19:07.290Z,18.90
2018-06-08T10:21:35.532Z,18.80
2018-06-08T10:24:03.694Z,18.80
2018-06-08T10:26:32.077Z,18.80
2018-06-08T10:29:00.286Z,18.80
2018-06-08T10:31:28.534Z,18.80
2018-06-08T10:36:58.923Z,18.80
2018-06-08T10:39:27.109Z,18.80
2018-06-08T10:41:55.317Z,18.80
2018-06-08T10:44:23.505Z,18.80
2018-06-08T10:46:51.907Z,18.80
2018-06-08T10:49:20.085Z,18.80
2018-06-08T10:51:48.363Z,18.80
2018-06-08T10:56:44.607Z,18.80
2018-06-08T10:59:12.762Z,18.80
2018-06-08T11:01:40.946Z,18.80
2018-06-08T11:04:09.125Z,18.80
2018-06-08T11:06:37.506Z,18.80
2018-06-08T11:09:08.724Z,18.70
2018-06-08T11:11:37.142Z,18.70
2018-06-08T11:14:05.380Z,18.70
2018-06-08T11:16:33.682Z,18.70
2018-06-08T11:19:01.864Z,18.70
2018-06-08T11:21:30.081Z,18.70
2018-06-08T11:23:58.220Z,18.70
2018-06-08T11:26:26.530Z,18.70
2018-06-08T11:28:54.752Z,18.70
2018-06-08T11:31:22.903Z,18.70
2018-06-08T11:33:51.107Z,18.80
2018-06-08T11:38:54.010Z,18.80
2018-06-08T11:43:50.170Z,18.70
2018-06-08T11:46:18.493Z,18.70
2018-06-08T11:48:46.737Z,18.60
2018-06-08T11:51:14.985Z,18.60
2018-06-08T11:53:43.160Z,18.60
2018-06-08T11:56:12.335Z,18.60
2018-06-08T11:58:40.564Z,18.60
2018-06-08T12:01:08.817Z,18.60
2018-06-08T12:03:37.010Z,18.60
2018-06-08T12:06:05.265Z,18.60
2018-06-08T12:08:33.431Z,18.60
2018-06-08T12:11:01.699Z,18.60
2018-06-08T12:13:29.880Z,18.60
2018-06-08T12:15:58.234Z,18.70
2018-06-08T12:18:26.439Z,18.70
2018-06-08T12:20:54.595Z,18.70
2018-06-08T12:23:22.741Z,18.70
2018-06-08T12:25:52.089Z,18.70
2018-06-08T12:28:20.285Z,18.80
2018-06-08T12:30:48.503Z,18.70
2018-06-08T12:33:16.712Z,18.70
2018-06-08T12:35:45.053Z,18.70
2018-06-08T12:38:13.272Z,18.80
2018-06-08T12:40:41.454Z,18.80
2018-06-08T12:43:09.712Z,18.80
2018-06-08T12:45:38.055Z,18.70
2018-06-08T12:48:06.248Z,18.60
2018-06-08T12:50:34.411Z,18.60
2018-06-08T12:53:02.544Z,18.50
2018-06-08T12:55:30.805Z,18.50
2018-06-08T12:57:59.048Z,18.40
2018-06-08T13:00:27.266Z,18.30
2018-06-08T13:02:55.508Z,18.10
2018-06-08T13:05:23.839Z,17.90
2018-06-08T13:07:52.011Z,17.80
2018-06-08T13:10:20.195Z,17.80
2018-06-08T13:12:48.404Z,17.80
2018-06-08T13:15:16.766Z,17.70
2018-06-08T13:17:44.903Z,17.70
2018-06-08T13:20:13.087Z,17.70
2018-06-08T13:25:09.400Z,17.80
2018-06-08T13:27:37.565Z,17.90
2018-06-08T13:30:05.823Z,18.00
2018-06-08T13:32:34.050Z,18.00
2018-06-08T13:35:02.333Z,18.00
2018-06-08T13:39:58.525Z,18.00
2018-06-08T13:42:26.879Z,18.00
2018-06-08T13:44:55.209Z,18.00
2018-06-08T13:47:23.365Z,18.00
2018-06-08T13:49:51.536Z,18.00
2018-06-08T13:52:19.746Z,18.10
2018-06-08T13:54:48.000Z,18.10
2018-06-08T13:57:16.191Z,18.10
2018-06-08T14:02:12.293Z,18.10
2018-06-08T14:04:40.461Z,18.20
2018-06-08T14:07:08.789Z,18.20
2018-06-08T14:09:37.030Z,18.20
2018-06-08T14:12:05.157Z,18.30
2018-06-08T14:14:33.314Z,18.30
2018-06-08T14:17:02.627Z,18.30
2018-06-08T14:19:31.069Z,18.40
2018-06-08T14:21:59.243Z,18.50
2018-06-08T14:24:27.518Z,18.50
2018-06-08T14:26:55.868Z,18.60
2018-06-08T14:29:24.126Z,18.50
2018-06-08T14:31:52.424Z,18.50
2018-06-08T14:34:20.611Z,18.60
2018-06-08T14:36:48.790Z,18.70
2018-06-08T14:39:16.962Z,18.70
2018-06-08T14:41:45.168Z,18.70
2018-06-08T14:44:13.346Z,18.80
2018-06-08T14:46:41.742Z,18.80
2018-06-08T14:49:09.911Z,18.80
2018-06-08T14:51:38.121Z,18.80
2018-06-08T14:54:06.561Z,18.90
2018-06-08T14:56:34.812Z,18.90
2018-06-08T14:59:03.178Z,18.90
2018-06-08T15:01:31.418Z,18.90
2018-06-08T15:03:59.597Z,18.90
2018-06-08T15:06:27.939Z,18.90
2018-06-08T15:08:56.080Z,18.90
2018-06-08T15:11:24.334Z,18.90
2018-06-08T15:13:52.533Z,18.90
2018-06-08T15:16:21.885Z,18.90
2018-06-08T15:18:50.189Z,19.00
2018-06-08T15:21:18.409Z,19.00
2018-06-08T15:23:46.633Z,19.00
2018-06-08T15:28:42.783Z,19.10
2018-06-08T15:33:39.318Z,19.20
2018-06-08T15:36:07.906Z,19.20
2018-06-08T15:38:36.349Z,19.10
2018-06-08T15:41:04.674Z,19.20
2018-06-08T15:43:33.803Z,19.10
2018-06-08T15:46:02.228Z,19.20
2018-06-08T15:48:30.493Z,19.20
2018-06-08T15:50:58.651Z,19.10
2018-06-08T15:53:26.840Z,19.10
2018-06-08T15:55:55.064Z,19.10
2018-06-08T15:58:23.242Z,19.10
2018-06-08T16:00:51.472Z,19.10
2018-06-08T16:03:20.488Z,19.20
2018-06-08T16:08:16.813Z,19.20
2018-06-08T16:10:45.066Z,19.20
2018-06-08T16:13:13.249Z,19.10
2018-06-08T16:15:41.504Z,19.20
2018-06-08T16:18:09.762Z,19.10
2018-06-08T16:20:37.930Z,19.20
2018-06-08T16:23:06.103Z,19.20
2018-06-08T16:25:34.392Z,19.10
2018-06-08T16:28:02.560Z,19.10
2018-06-08T16:30:30.776Z,19.10
2018-06-08T16:32:59.000Z,19.20
2018-06-08T16:35:27.295Z,19.10
2018-06-08T16:37:55.490Z,19.10
2018-06-08T16:40:23.624Z,19.10
2018-06-08T16:42:51.887Z,19.10
2018-06-08T16:45:20.196Z,19.10
2018-06-08T16:47:48.373Z,19.10
2018-06-08T16:50:16.599Z,19.00
2018-06-08T16:52:44.779Z,19.00
2018-06-08T16:55:14.128Z,18.90
2018-06-08T16:57:42.633Z,18.90
2018-06-08T17:00:10.946Z,18.80
2018-06-08T17:02:39.171Z,18.80
2018-06-08T17:08:05.194Z,18.80
2018-06-08T17:10:33.448Z,18.80
2018-06-08T17:13:02.044Z,18.80
2018-06-08T17:15:30.912Z,18.80
2018-06-08T17:17:59.164Z,18.80
2018-06-08T17:20:27.357Z,18.80
2018-06-08T17:22:55.691Z,18.80
2018-06-08T17:25:23.954Z,18.80
2018-06-08T17:27:52.204Z,18.80
2018-06-08T17:30:20.492Z,18.80
2018-06-08T17:32:48.745Z,18.80
2018-06-08T17:35:17.018Z,18.80
2018-06-08T17:37:45.213Z,18.80
2018-06-08T17:40:13.400Z,18.80
2018-06-08T17:42:41.634Z,18.80
2018-06-08T17:45:09.907Z,18.70
2018-06-08T17:47:38.125Z,18.80
2018-06-08T17:50:06.334Z,18.80
2018-06-08T17:52:34.546Z,18.80
2018-06-08T17:55:02.831Z,18.80
2018-06-08T17:57:31.071Z,18.80
2018-06-08T17:59:59.259Z,18.70
2018-06-08T18:02:27.494Z,18.70
2018-06-08T18:04:55.743Z,18.80
2018-06-08T18:07:24.031Z,18.80
2018-06-08T18:09:52.203Z,18.70
2018-06-08T18:12:21.136Z,18.80
2018-06-08T18:14:49.352Z,18.70
2018-06-08T18:17:17.630Z,18.80
2018-06-08T18:19:45.890Z,18.70
2018-06-08T18:22:14.135Z,18.70
2018-06-08T18:24:42.277Z,18.70
2018-06-08T18:27:10.640Z,18.70
2018-06-08T18:29:38.824Z,18.70
2018-06-08T18:34:35.043Z,18.70
2018-06-08T18:37:04.441Z,18.70
2018-06-08T18:39:33.706Z,18.60
2018-06-08T18:42:01.962Z,18.60
2018-06-08T18:44:30.175Z,18.60
2018-06-08T18:46:58.450Z,18.60
2018-06-08T18:49:26.713Z,18.50
2018-06-08T18:51:55.000Z,18.60
2018-06-08T18:54:23.280Z,18.60
2018-06-08T18:56:51.534Z,18.60
2018-06-08T18:59:20.640Z,18.60
2018-06-08T19:01:48.894Z,18.50
2018-06-08T19:04:17.184Z,18.50
2018-06-08T19:06:45.474Z,18.50
2018-06-08T19:09:13.749Z,18.50
2018-06-08T19:11:41.978Z,18.50
2018-06-08T19:14:10.245Z,18.50
2018-06-08T19:19:07.675Z,18.40
2018-06-08T19:21:35.948Z,18.40
2018-06-08T19:24:04.173Z,18.40
2018-06-08T19:26:32.752Z,18.40
2018-06-08T19:29:01.014Z,18.40
2018-06-08T19:31:29.201Z,18.40
2018-06-08T19:33:57.501Z,18.40
2018-06-08T19:36:25.798Z,18.40
2018-06-08T19:38:54.012Z,18.40
2018-06-08T19:43:50.313Z,18.40
2018-06-08T19:46:18.738Z,18.40
2018-06-08T19:48:47.038Z,18.40
2018-06-08T19:51:17.295Z,18.40
2018-06-08T19:53:45.540Z,18.40
2018-06-08T19:56:13.862Z,18.40
2018-06-08T19:58:42.104Z,18.30
2018-06-08T20:01:10.384Z,18.40
2018-06-08T20:03:38.618Z,18.30
2018-06-08T20:06:06.965Z,18.30
2018-06-08T20:08:35.133Z,18.30
2018-06-08T20:11:04.507Z,18.30
2018-06-08T20:13:32.788Z,18.30
2018-06-08T20:16:01.041Z,18.30
2018-06-08T20:18:29.279Z,18.30
2018-06-08T20:20:57.493Z,18.30
2018-06-08T20:23:25.899Z,18.30
2018-06-08T20:25:55.242Z,18.30
2018-06-08T20:28:23.623Z,18.30
2018-06-08T20:30:51.799Z,18.30
2018-06-08T20:33:20.043Z,18.40
2018-06-08T20:35:49.326Z,18.30
2018-06-08T20:38:17.579Z,18.30
2018-06-08T20:40:45.766Z,18.30
2018-06-08T20:46:14.304Z,18.30
2018-06-08T20:48:42.526Z,18.30
2018-06-08T20:51:10.718Z,18.30
2018-06-08T20:53:38.925Z,18.30
2018-06-08T20:56:07.249Z,18.30
2018-06-08T20:58:35.427Z,18.30
2018-06-08T21:01:03.627Z,18.30
2018-06-08T21:03:32.527Z,18.30
2018-06-08T21:06:00.804Z,18.30
2018-06-08T21:08:28.985Z,18.30
2018-06-08T21:10:57.147Z,18.30
2018-06-08T21:13:25.329Z,18.30
2018-06-08T21:18:21.564Z,18.30
2018-06-08T21:20:49.759Z,18.30
2018-06-08T21:23:17.979Z,18.30
2018-06-08T21:25:46.347Z,18.30
2018-06-08T21:28:14.516Z,18.30
2018-06-08T21:30:42.779Z,18.30
2018-06-08T21:33:10.918Z,18.30
2018-06-08T21:35:39.300Z,18.30
2018-06-08T21:38:07.479Z,18.20
2018-06-08T21:43:03.698Z,18.30
2018-06-08T21:45:32.083Z,18.30
2018-06-08T21:48:00.395Z,18.30
2018-06-08T21:50:28.597Z,18.20
2018-06-08T21:52:56.945Z,18.30
2018-06-08T21:55:25.362Z,18.20
2018-06-08T21:57:53.567Z,18.20
2018-06-08T22:00:21.822Z,18.20
2018-06-08T22:02:50.127Z,18.20
2018-06-08T22:05:18.395Z,18.10
2018-06-08T22:07:46.623Z,18.20
2018-06-08T22:10:15.719Z,18.10
2018-06-08T22:12:43.876Z,18.10
2018-06-08T22:15:12.303Z,18.10
2018-06-08T22:17:40.532Z,18.20
2018-06-08T22:23:06.590Z,18.20
2018-06-08T22:25:36.070Z,18.20
2018-06-08T22:30:33.182Z,18.20
2018-06-08T22:33:01.473Z,18.20
2018-06-08T22:35:30.912Z,18.10
2018-06-08T22:37:59.072Z,18.20
2018-06-08T22:40:27.275Z,18.20
2018-06-08T22:42:55.552Z,18.20
2018-06-08T22:45:23.952Z,18.10
2018-06-08T22:47:52.106Z,18.20
2018-06-08T22:50:20.731Z,18.20
2018-06-08T22:52:48.943Z,18.20
2018-06-08T22:55:17.262Z,18.20
2018-06-08T22:57:45.485Z,18.20
2018-06-08T23:00:16.141Z,18.30
2018-06-08T23:02:44.373Z,18.20
2018-06-08T23:05:12.586Z,18.20
2018-06-08T23:07:40.797Z,18.20
2018-06-08T23:10:09.016Z,18.10
2018-06-08T23:12:37.175Z,18.10
2018-06-08T23:15:05.628Z,18.20
2018-06-08T23:17:34.446Z,18.10
2018-06-08T23:20:02.621Z,18.10
2018-06-08T23:22:30.813Z,18.10
2018-06-08T23:24:59.027Z,18.10
2018-06-08T23:27:27.207Z,18.10
2018-06-08T23:29:55.541Z,18.10
2018-06-08T23:32:23.804Z,18.10
2018-06-08T23:34:52.031Z,18.10
2018-06-08T23:37:20.390Z,18.10
2018-06-08T23:39:48.585Z,18.10
2018-06-08T23:42:16.870Z,18.10
2018-06-08T23:44:45.078Z,18.00
2018-06-08T23:47:15.380Z,18.00
2018-06-08T23:49:50.220Z,18.00
2018-06-08T23:52:18.689Z,18.00
2018-06-08T23:54:46.861Z,18.00
2018-06-08T23:57:15.061Z,18.00
2018-06-08T23:59:43.276Z,18.00
